createdAt,value
2023-06-26T00:02:25.598Z,55.10
2023-06-26T00:04:54.976Z,54.74
2023-06-26T00:07:22.465Z,54.84
2023-06-26T00:09:50.924Z,54.53
2023-06-26T00:12:18.307Z,54.90
2023-06-26T00:14:45.472Z,54.58
2023-06-26T00:17:13.687Z,54.81
2023-06-26T00:19:40.701Z,54.91
2023-06-26T00:22:08.158Z,54.56
2023-06-26T00:24:35.444Z,54.62
2023-06-26T00:27:02.987Z,54.77
2023-06-26T00:29:30.166Z,54.81
2023-06-26T00:31:57.733Z,54.87
2023-06-26T00:34:24.809Z,54.89
2023-06-26T00:36:55.676Z,54.37
2023-06-26T00:39:22.688Z,54.42
2023-06-26T00:41:50.084Z,54.91
2023-06-26T00:44:17.243Z,54.86
2023-06-26T00:46:44.867Z,54.63
2023-06-26T00:49:12.026Z,54.79
2023-06-26T00:51:41.177Z,54.88
2023-06-26T00:54:08.443Z,55.02
2023-06-26T00:56:37.184Z,55.56
2023-06-26T00:59:04.370Z,55.67
2023-06-26T01:01:31.880Z,55.48
2023-06-26T01:03:59.265Z,55.40
2023-06-26T01:06:32.680Z,56.09
2023-06-26T01:09:01.238Z,56.26
2023-06-26T01:11:28.896Z,56.12
2023-06-26T01:14:01.052Z,56.09
2023-06-26T01:16:31.383Z,56.27
2023-06-26T01:18:59.639Z,56.44
2023-06-26T01:21:33.671Z,56.86
2023-06-26T01:24:21.506Z,56.81
2023-06-26T01:26:52.996Z,56.87
2023-06-26T01:29:25.946Z,57.39
2023-06-26T01:31:53.696Z,57.18
2023-06-26T01:34:21.566Z,58.33
2023-06-26T01:36:49.186Z,57.66
2023-06-26T01:39:20.353Z,58.39
2023-06-26T01:41:48.127Z,58.21
2023-06-26T01:44:31.213Z,58.45
2023-06-26T01:47:11.378Z,58.09
2023-06-26T01:50:02.843Z,58.05
2023-06-26T01:52:54.646Z,58.11
2023-06-26T01:55:37.435Z,58.11
2023-06-26T01:58:07.756Z,58.09
2023-06-26T02:00:36.424Z,58.32
2023-06-26T02:03:06.227Z,58.15
2023-06-26T02:05:34.418Z,58.38
2023-06-26T02:08:05.073Z,58.21
2023-06-26T02:10:32.551Z,58.30
2023-06-26T02:12:59.928Z,58.77
2023-06-26T02:15:27.298Z,58.74
2023-06-26T02:17:54.988Z,58.90
2023-06-26T02:20:22.239Z,59.26
2023-06-26T02:22:49.818Z,58.45
2023-06-26T02:25:17.869Z,58.79
2023-06-26T02:27:47.890Z,59.22
2023-06-26T02:30:15.091Z,59.06
2023-06-26T02:32:42.644Z,58.73
2023-06-26T02:35:10.120Z,58.37
2023-06-26T02:37:38.000Z,58.43
2023-06-26T02:40:06.349Z,58.72
2023-06-26T02:42:33.792Z,58.53
2023-06-26T02:45:00.842Z,58.18
2023-06-26T02:47:28.476Z,58.40
2023-06-26T02:49:58.553Z,58.44
2023-06-26T02:52:25.944Z,58.33
2023-06-26T02:54:52.973Z,58.43
2023-06-26T02:57:20.621Z,58.21
2023-06-26T02:59:47.797Z,58.50
2023-06-26T03:02:15.119Z,58.70
2023-06-26T03:04:44.339Z,58.53
2023-06-26T03:07:12.009Z,58.76
2023-06-26T03:09:39.073Z,58.73
2023-06-26T03:12:07.399Z,58.86
2023-06-26T03:14:34.724Z,58.61
2023-06-26T03:17:04.926Z,59.22
2023-06-26T03:19:32.254Z,59.24
2023-06-26T03:21:59.664Z,59.54
2023-06-26T03:24:26.857Z,59.31
2023-06-26T03:26:54.625Z,59.67
2023-06-26T03:29:21.848Z,59.64
2023-06-26T03:31:49.268Z,59.52
2023-06-26T03:34:19.374Z,59.61
2023-06-26T03:36:46.712Z,59.43
2023-06-26T03:39:13.847Z,59.58
2023-06-26T03:41:41.589Z,59.17
2023-06-26T03:44:08.823Z,59.25
2023-06-26T03:46:36.295Z,58.91
2023-06-26T03:49:03.704Z,59.18
2023-06-26T03:51:32.542Z,58.81
2023-06-26T03:53:59.864Z,59.22
2023-06-26T03:56:27.303Z,58.87
2023-06-26T03:58:54.490Z,59.31
2023-06-26T04:01:22.950Z,58.65
2023-06-26T04:03:50.192Z,58.76
2023-06-26T04:06:17.869Z,59.03
2023-06-26T04:08:44.853Z,58.70
2023-06-26T04:11:12.395Z,59.38
2023-06-26T04:13:39.469Z,59.50
2023-06-26T04:16:08.036Z,59.71
2023-06-26T04:18:35.453Z,59.73
2023-06-26T04:21:14.560Z,59.60
2023-06-26T04:23:42.341Z,59.14
2023-06-26T04:26:16.005Z,58.60
2023-06-26T04:28:44.334Z,58.84
2023-06-26T04:31:11.687Z,58.60
2023-06-26T04:33:41.844Z,58.88
2023-06-26T04:36:12.276Z,58.50
2023-06-26T04:38:39.543Z,58.54
2023-06-26T04:41:07.228Z,58.28
2023-06-26T04:43:34.560Z,58.42
2023-06-26T04:46:04.370Z,58.40
2023-06-26T04:48:34.108Z,58.86
2023-06-26T04:51:01.901Z,58.91
2023-06-26T04:53:29.384Z,58.69
2023-06-26T04:55:57.166Z,58.69
2023-06-26T04:58:24.423Z,58.86
2023-06-26T05:00:55.094Z,58.54
2023-06-26T05:03:23.489Z,58.47
2023-06-26T05:05:51.868Z,57.94
2023-06-26T05:08:25.614Z,57.92
2023-06-26T05:10:58.910Z,57.39
2023-06-26T05:13:27.321Z,57.56
2023-06-26T05:15:55.180Z,57.85
2023-06-26T05:18:22.315Z,57.19
2023-06-26T05:20:50.194Z,57.24
2023-06-26T05:23:18.064Z,56.60
2023-06-26T05:25:46.044Z,56.69
2023-06-26T05:28:14.648Z,56.42
2023-06-26T05:30:42.665Z,56.33
2023-06-26T05:33:13.847Z,56.19
2023-06-26T05:35:44.004Z,56.19
2023-06-26T05:38:11.937Z,55.70
2023-06-26T05:40:42.073Z,55.55
2023-06-26T05:43:10.370Z,54.95
2023-06-26T05:45:38.085Z,54.93
2023-06-26T05:48:06.195Z,54.59
2023-06-26T05:50:34.429Z,54.20
2023-06-26T05:53:08.112Z,54.24
2023-06-26T05:55:36.126Z,53.44
2023-06-26T05:58:04.240Z,53.31
2023-06-26T06:00:31.995Z,52.91
2023-06-26T06:02:59.149Z,52.80
2023-06-26T06:05:26.690Z,52.42
2023-06-26T06:07:53.943Z,51.98
2023-06-26T06:10:21.264Z,52.07
2023-06-26T06:12:48.620Z,51.76
2023-06-26T06:15:17.347Z,51.53
2023-06-26T06:17:44.623Z,51.30
2023-06-26T06:20:13.232Z,50.65
2023-06-26T06:22:40.295Z,50.70
2023-06-26T06:25:08.067Z,51.03
2023-06-26T06:27:35.236Z,50.92
2023-06-26T06:30:06.820Z,50.96
2023-06-26T06:32:36.206Z,50.75
2023-06-26T06:35:10.548Z,50.66
2023-06-26T06:37:41.155Z,50.43
2023-06-26T06:40:11.546Z,50.23
2023-06-26T06:42:38.966Z,49.56
2023-06-26T06:45:07.615Z,49.14
2023-06-26T06:47:35.439Z,48.90
2023-06-26T06:50:09.481Z,49.28
2023-06-26T06:52:42.035Z,48.94
2023-06-26T06:55:10.417Z,48.28
2023-06-26T06:57:40.070Z,48.24
2023-06-26T07:00:13.262Z,48.28
2023-06-26T07:02:42.977Z,48.31
2023-06-26T07:05:11.195Z,48.38
2023-06-26T07:07:40.514Z,47.27
2023-06-26T07:10:11.527Z,46.34
2023-06-26T07:12:39.430Z,46.56
2023-06-26T07:15:10.757Z,46.51
2023-06-26T07:17:41.074Z,46.19
2023-06-26T07:20:09.958Z,45.47
2023-06-26T07:22:38.450Z,46.09
2023-06-26T07:25:10.602Z,45.57
2023-06-26T07:27:39.579Z,45.10
2023-06-26T07:30:11.517Z,44.60
2023-06-26T07:32:39.902Z,44.70
2023-06-26T07:35:08.161Z,44.66
2023-06-26T07:37:35.538Z,44.43
2023-06-26T07:40:03.493Z,44.02
2023-06-26T07:42:30.859Z,43.98
2023-06-26T07:44:58.480Z,44.21
2023-06-26T07:47:25.659Z,43.83
2023-06-26T07:49:53.232Z,44.30
2023-06-26T07:52:20.955Z,44.02
2023-06-26T07:54:48.712Z,44.21
2023-06-26T07:57:16.073Z,44.37
2023-06-26T07:59:43.680Z,44.42
2023-06-26T08:02:11.048Z,44.85
2023-06-26T08:04:38.523Z,44.25
2023-06-26T08:07:06.266Z,43.55
2023-06-26T08:09:33.824Z,44.30
2023-06-26T08:12:01.232Z,44.65
2023-06-26T08:14:30.124Z,44.25
2023-06-26T08:16:57.614Z,43.98
2023-06-26T08:19:25.080Z,43.84
2023-06-26T08:21:52.377Z,42.70
2023-06-26T08:24:20.302Z,43.09
2023-06-26T08:26:49.201Z,42.90
2023-06-26T08:29:16.627Z,42.49
2023-06-26T08:31:44.575Z,42.30
2023-06-26T08:34:12.965Z,40.87
2023-06-26T08:36:40.126Z,41.26
2023-06-26T08:39:09.730Z,41.12
2023-06-26T08:41:37.504Z,40.28
2023-06-26T08:44:06.216Z,40.55
2023-06-26T08:46:35.012Z,39.50
2023-06-26T08:49:15.040Z,40.15
2023-06-26T08:51:51.950Z,40.61
2023-06-26T08:54:31.490Z,40.99
2023-06-26T08:57:00.229Z,41.41
2023-06-26T08:59:28.903Z,40.91
2023-06-26T09:01:56.321Z,40.38
2023-06-26T09:04:23.728Z,40.90
2023-06-26T09:06:50.849Z,40.61
2023-06-26T09:09:18.255Z,40.40
2023-06-26T09:11:45.375Z,40.45
2023-06-26T09:14:14.781Z,39.82
2023-06-26T09:16:43.639Z,39.68
2023-06-26T09:19:13.757Z,39.52
2023-06-26T09:21:43.986Z,39.54
2023-06-26T09:24:12.143Z,39.35
2023-06-26T09:26:41.232Z,39.44
2023-06-26T09:29:10.976Z,38.80
2023-06-26T09:31:42.879Z,38.20
2023-06-26T09:34:11.457Z,38.50
2023-06-26T09:36:40.513Z,38.36
2023-06-26T09:39:12.616Z,37.85
2023-06-26T09:41:43.696Z,38.32
2023-06-26T09:44:15.405Z,38.33
2023-06-26T09:46:46.795Z,38.16
2023-06-26T09:49:14.472Z,37.57
2023-06-26T09:51:43.786Z,36.66
2023-06-26T09:54:11.823Z,36.00
2023-06-26T09:56:39.262Z,34.29
2023-06-26T09:59:08.277Z,34.65
2023-06-26T10:01:42.553Z,34.54
2023-06-26T10:04:10.438Z,34.77
2023-06-26T10:06:46.150Z,34.54
2023-06-26T10:09:16.953Z,33.85
2023-06-26T10:12:08.702Z,33.94
2023-06-26T10:14:38.785Z,34.00
2023-06-26T10:17:11.401Z,34.37
2023-06-26T10:19:46.643Z,34.10
2023-06-26T10:22:18.947Z,33.68
2023-06-26T10:24:50.454Z,34.28
2023-06-26T10:27:21.475Z,33.59
2023-06-26T10:30:05.742Z,33.39
2023-06-26T10:32:34.673Z,33.62
2023-06-26T10:35:04.350Z,33.59
2023-06-26T10:37:48.339Z,33.57
2023-06-26T10:40:41.579Z,32.75
2023-06-26T10:43:11.037Z,32.81
2023-06-26T10:45:44.931Z,31.86
2023-06-26T10:48:16.267Z,32.37
2023-06-26T10:50:44.116Z,32.10
2023-06-26T10:53:28.931Z,32.24
2023-06-26T10:55:58.481Z,32.52
2023-06-26T10:58:41.782Z,33.07
2023-06-26T11:01:12.918Z,31.96
2023-06-26T11:03:42.367Z,33.10
2023-06-26T11:06:15.466Z,32.69
2023-06-26T11:09:12.505Z,32.86
2023-06-26T11:11:55.953Z,32.86
2023-06-26T11:14:24.980Z,32.75
2023-06-26T11:16:52.961Z,32.27
2023-06-26T11:19:21.528Z,31.96
2023-06-26T11:21:49.010Z,31.46
2023-06-26T11:24:17.097Z,31.45
2023-06-26T11:26:47.585Z,31.01
2023-06-26T11:29:14.776Z,31.64
2023-06-26T11:31:43.415Z,31.02
2023-06-26T11:34:14.010Z,30.04
2023-06-26T11:36:47.434Z,28.99
2023-06-26T11:39:14.630Z,29.36
2023-06-26T11:41:43.097Z,29.59
2023-06-26T11:44:11.808Z,30.01
2023-06-26T11:46:39.795Z,29.88
2023-06-26T11:49:08.958Z,29.39
2023-06-26T11:51:37.335Z,28.93
2023-06-26T11:54:05.902Z,29.23
2023-06-26T11:56:33.450Z,28.20
2023-06-26T11:59:05.589Z,28.89
2023-06-26T12:01:47.433Z,29.13
2023-06-26T12:04:20.693Z,28.66
2023-06-26T12:06:52.029Z,28.74
2023-06-26T12:09:22.949Z,28.81
2023-06-26T12:11:55.901Z,29.09
2023-06-26T12:14:26.284Z,29.03
2023-06-26T12:16:54.072Z,28.45
2023-06-26T12:19:29.420Z,28.52
2023-06-26T12:21:57.670Z,28.60
2023-06-26T12:24:26.696Z,28.61
2023-06-26T12:26:58.029Z,28.64
2023-06-26T12:29:35.319Z,29.03
2023-06-26T12:32:03.342Z,28.49
2023-06-26T12:34:34.965Z,28.33
2023-06-26T12:37:12.790Z,28.03
2023-06-26T12:39:49.459Z,27.94
2023-06-26T12:42:20.367Z,28.52
2023-06-26T12:44:48.368Z,29.16
2023-06-26T12:47:18.417Z,28.38
2023-06-26T12:49:51.411Z,28.80
2023-06-26T12:52:22.609Z,27.93
2023-06-26T12:54:55.186Z,28.16
2023-06-26T12:57:23.100Z,27.64
2023-06-26T12:59:50.503Z,28.15
2023-06-26T13:02:18.090Z,28.17
2023-06-26T13:04:45.753Z,27.85
2023-06-26T13:07:13.569Z,27.85
2023-06-26T13:09:42.130Z,27.89
2023-06-26T13:12:10.158Z,27.72
2023-06-26T13:14:37.696Z,27.35
2023-06-26T13:17:07.866Z,26.94
2023-06-26T13:19:36.791Z,27.05
2023-06-26T13:22:04.338Z,27.32
2023-06-26T13:24:31.567Z,26.82
2023-06-26T13:26:59.088Z,27.38
2023-06-26T13:29:26.466Z,27.12
2023-06-26T13:31:55.375Z,27.46
2023-06-26T13:34:24.668Z,27.31
2023-06-26T13:36:52.576Z,27.27
2023-06-26T13:39:20.043Z,26.66
2023-06-26T13:41:49.002Z,26.88
2023-06-26T13:44:35.871Z,27.09
2023-06-26T13:47:09.678Z,27.31
2023-06-26T13:49:37.765Z,27.09
2023-06-26T13:52:06.231Z,27.37
2023-06-26T13:54:33.353Z,27.15
2023-06-26T13:57:03.249Z,27.31
2023-06-26T13:59:30.394Z,26.81
2023-06-26T14:02:00.497Z,27.36
2023-06-26T14:04:27.863Z,27.78
2023-06-26T14:06:55.281Z,28.77
2023-06-26T14:09:22.962Z,27.84
2023-06-26T14:11:51.676Z,27.89
2023-06-26T14:14:18.941Z,27.49
2023-06-26T14:16:46.466Z,27.86
2023-06-26T14:19:15.676Z,27.88
2023-06-26T14:21:43.249Z,28.43
2023-06-26T14:24:10.684Z,27.35
2023-06-26T14:26:38.045Z,27.47
2023-06-26T14:29:05.023Z,27.82
2023-06-26T14:31:32.803Z,28.10
2023-06-26T14:34:00.375Z,27.37
2023-06-26T14:36:28.141Z,27.09
2023-06-26T14:38:55.384Z,27.30
2023-06-26T14:41:23.470Z,26.83
2023-06-26T14:43:51.496Z,26.22
2023-06-26T14:46:21.847Z,26.18
2023-06-26T14:48:49.802Z,25.80
2023-06-26T14:51:19.997Z,25.81
2023-06-26T14:53:49.633Z,25.59
2023-06-26T14:56:17.897Z,25.00
2023-06-26T14:58:48.417Z,25.22
2023-06-26T15:01:20.776Z,25.24
2023-06-26T15:03:48.740Z,25.17
2023-06-26T15:06:16.520Z,24.62
2023-06-26T15:08:43.603Z,25.03
2023-06-26T15:11:11.058Z,25.26
2023-06-26T15:13:38.165Z,25.25
2023-06-26T15:16:08.520Z,25.10
2023-06-26T15:18:35.630Z,25.32
2023-06-26T15:21:05.970Z,25.59
2023-06-26T15:23:32.945Z,25.45
2023-06-26T15:26:00.285Z,25.76
2023-06-26T15:28:27.612Z,25.49
2023-06-26T15:30:54.927Z,25.10
2023-06-26T15:33:21.920Z,24.51
2023-06-26T15:35:49.363Z,24.98
2023-06-26T15:38:16.472Z,24.33
2023-06-26T15:40:44.366Z,24.10
2023-06-26T15:43:11.629Z,23.85
2023-06-26T15:45:39.097Z,23.28
2023-06-26T15:48:12.797Z,23.06
2023-06-26T15:50:40.345Z,23.00
2023-06-26T15:53:08.917Z,22.74
2023-06-26T15:55:37.430Z,22.76
2023-06-26T15:58:05.059Z,22.34
2023-06-26T16:00:32.559Z,22.42
2023-06-26T16:02:59.724Z,22.45
2023-06-26T16:05:27.320Z,22.39
2023-06-26T16:07:57.319Z,22.71
2023-06-26T16:10:26.343Z,23.21
2023-06-26T16:12:53.736Z,22.76
2023-06-26T16:15:22.431Z,22.96
2023-06-26T16:17:50.774Z,22.74
2023-06-26T16:20:18.410Z,23.47
2023-06-26T16:22:45.481Z,23.47
2023-06-26T16:25:12.868Z,23.29
2023-06-26T16:27:40.203Z,23.19
2023-06-26T16:30:08.707Z,22.95
2023-06-26T16:32:35.833Z,23.33
2023-06-26T16:35:07.029Z,23.44
2023-06-26T16:37:34.142Z,23.69
2023-06-26T16:40:01.351Z,23.52
2023-06-26T16:42:28.438Z,23.72
2023-06-26T16:44:56.191Z,23.93
2023-06-26T16:47:29.555Z,24.00
2023-06-26T16:49:58.838Z,23.69
2023-06-26T16:52:31.261Z,23.74
2023-06-26T16:54:58.529Z,23.87
2023-06-26T16:57:25.540Z,23.79
2023-06-26T16:59:53.856Z,24.50
2023-06-26T17:02:21.742Z,24.39
2023-06-26T17:04:48.931Z,24.22
2023-06-26T17:07:16.438Z,24.35
2023-06-26T17:09:43.411Z,24.43
2023-06-26T17:12:13.620Z,24.79
2023-06-26T17:14:40.592Z,24.83
2023-06-26T17:17:08.175Z,24.95
2023-06-26T17:19:39.362Z,25.29
2023-06-26T17:22:06.894Z,25.20
2023-06-26T17:24:34.215Z,25.56
2023-06-26T17:27:12.783Z,25.37
2023-06-26T17:29:41.483Z,25.90
2023-06-26T17:32:09.971Z,25.92
2023-06-26T17:34:37.251Z,25.97
2023-06-26T17:37:06.182Z,26.08
2023-06-26T17:39:34.273Z,26.23
2023-06-26T17:42:03.194Z,26.09
2023-06-26T17:44:30.711Z,26.14
2023-06-26T17:46:58.672Z,26.02
2023-06-26T17:49:25.800Z,26.35
2023-06-26T17:51:53.102Z,26.51
2023-06-26T17:54:20.099Z,26.75
2023-06-26T17:56:50.605Z,26.60
2023-06-26T17:59:17.620Z,27.00
2023-06-26T18:01:45.150Z,26.97
2023-06-26T18:04:17.243Z,27.16
2023-06-26T18:06:44.531Z,26.80
2023-06-26T18:09:11.452Z,27.12
2023-06-26T18:11:39.426Z,27.64
2023-06-26T18:14:06.872Z,27.56
2023-06-26T18:16:34.118Z,27.51
2023-06-26T18:19:01.123Z,28.03
2023-06-26T18:21:28.891Z,27.91
2023-06-26T18:23:56.561Z,27.80
2023-06-26T18:26:25.462Z,27.83
2023-06-26T18:28:54.241Z,27.82
2023-06-26T18:31:22.032Z,28.00
2023-06-26T18:33:49.699Z,28.38
2023-06-26T18:36:20.026Z,28.66
2023-06-26T18:38:47.457Z,28.84
2023-06-26T18:41:17.648Z,30.68
2023-06-26T18:43:48.471Z,31.47
2023-06-26T18:46:16.733Z,31.85
2023-06-26T18:48:43.995Z,32.72
2023-06-26T18:51:14.224Z,33.35
2023-06-26T18:53:45.169Z,34.66
2023-06-26T18:56:13.556Z,35.18
2023-06-26T18:58:40.609Z,36.07
2023-06-26T19:01:08.417Z,36.63
2023-06-26T19:03:35.546Z,37.20
2023-06-26T19:06:02.919Z,37.63
2023-06-26T19:08:30.186Z,37.43
2023-06-26T19:10:57.424Z,37.49
2023-06-26T19:13:27.419Z,38.59
2023-06-26T19:15:55.858Z,38.45
2023-06-26T19:18:22.879Z,38.80
2023-06-26T19:20:50.267Z,39.50
2023-06-26T19:23:19.825Z,39.70
2023-06-26T19:25:49.829Z,40.38
2023-06-26T19:28:16.792Z,40.89
2023-06-26T19:30:44.709Z,42.51
2023-06-26T19:33:11.911Z,42.82
2023-06-26T19:35:39.470Z,43.09
2023-06-26T19:38:08.589Z,43.65
2023-06-26T19:40:40.876Z,43.87
2023-06-26T19:43:11.892Z,44.66
2023-06-26T19:45:39.762Z,44.52
2023-06-26T19:48:07.064Z,47.75
2023-06-26T19:50:37.621Z,53.65
2023-06-26T19:53:05.751Z,51.75
2023-06-26T19:55:33.093Z,52.89
2023-06-26T19:58:02.745Z,53.63
2023-06-26T20:00:33.998Z,55.70
2023-06-26T20:03:01.247Z,55.17
2023-06-26T20:05:31.863Z,55.24
2023-06-26T20:07:59.017Z,55.77
2023-06-26T20:10:26.449Z,55.75
2023-06-26T20:12:56.094Z,57.83
2023-06-26T20:15:23.445Z,58.49
2023-06-26T20:17:53.006Z,57.90
2023-06-26T20:20:23.161Z,60.69
2023-06-26T20:22:52.338Z,59.79
2023-06-26T20:25:21.414Z,60.31
2023-06-26T20:27:53.389Z,60.79
2023-06-26T20:30:20.780Z,60.44
2023-06-26T20:32:50.656Z,60.47
2023-06-26T20:35:23.835Z,60.93
2023-06-26T20:37:50.899Z,61.00
2023-06-26T20:40:20.212Z,60.92
2023-06-26T20:42:47.586Z,60.19
2023-06-26T20:45:21.820Z,60.72
2023-06-26T20:47:55.057Z,60.30
2023-06-26T20:50:24.811Z,60.36
2023-06-26T20:52:56.536Z,60.93
2023-06-26T20:55:27.888Z,60.53
2023-06-26T20:57:56.653Z,60.69
2023-06-26T21:00:24.074Z,60.74
2023-06-26T21:02:54.297Z,59.22
2023-06-26T21:05:21.821Z,60.19
2023-06-26T21:07:54.128Z,60.33
2023-06-26T21:10:21.486Z,59.94
2023-06-26T21:12:48.620Z,59.66
2023-06-26T21:15:15.853Z,59.77
2023-06-26T21:17:42.979Z,59.16
2023-06-26T21:20:11.219Z,59.72
2023-06-26T21:22:38.305Z,59.71
2023-06-26T21:25:06.431Z,59.99
2023-06-26T21:27:33.465Z,59.72
2023-06-26T21:30:00.723Z,59.70
2023-06-26T21:32:27.979Z,58.85
2023-06-26T21:34:56.581Z,59.18
2023-06-26T21:37:23.464Z,58.70
2023-06-26T21:39:50.909Z,58.42
2023-06-26T21:42:17.900Z,58.63
2023-06-26T21:44:45.267Z,58.10
2023-06-26T21:47:12.339Z,57.66
2023-06-26T21:49:41.064Z,57.68
2023-06-26T21:52:08.272Z,57.77
2023-06-26T21:54:35.532Z,57.50
2023-06-26T21:57:02.530Z,57.61
2023-06-26T21:59:29.861Z,57.49
2023-06-26T22:01:56.856Z,58.14
2023-06-26T22:04:27.520Z,57.75
2023-06-26T22:06:56.165Z,58.25
2023-06-26T22:09:23.573Z,58.11
2023-06-26T22:11:53.199Z,57.80
2023-06-26T22:14:20.521Z,57.90
2023-06-26T22:16:48.294Z,58.43
2023-06-26T22:19:15.713Z,58.76
2023-06-26T22:21:48.362Z,57.70
2023-06-26T22:24:15.744Z,57.66
2023-06-26T22:26:42.842Z,58.43
2023-06-26T22:29:13.847Z,58.16
2023-06-26T22:31:40.946Z,58.04
2023-06-26T22:34:08.296Z,58.38
2023-06-26T22:36:35.345Z,58.32
2023-06-26T22:39:02.754Z,58.63
2023-06-26T22:41:29.921Z,57.91
2023-06-26T22:43:59.268Z,58.25
2023-06-26T22:46:26.273Z,58.56
2023-06-26T22:48:53.516Z,58.54
2023-06-26T22:51:20.639Z,58.85
2023-06-26T22:53:47.950Z,59.34
2023-06-26T22:56:15.011Z,59.83
2023-06-26T22:58:42.592Z,59.73
2023-06-26T23:01:15.565Z,60.21
2023-06-26T23:03:43.078Z,60.88
2023-06-26T23:06:10.545Z,61.02
2023-06-26T23:08:37.992Z,61.25
2023-06-26T23:11:04.911Z,61.13
2023-06-26T23:13:32.145Z,61.55
2023-06-26T23:15:59.194Z,60.58
2023-06-26T23:18:26.513Z,60.24
2023-06-26T23:20:53.651Z,60.17
2023-06-26T23:23:20.960Z,60.04
2023-06-26T23:25:47.878Z,59.66
2023-06-26T23:28:15.253Z,58.90
2023-06-26T23:30:45.229Z,58.11
2023-06-26T23:33:16.052Z,57.85
2023-06-26T23:35:48.000Z,57.28
2023-06-26T23:38:17.743Z,57.28
2023-06-26T23:40:45.065Z,57.18
2023-06-26T23:43:12.921Z,57.64
2023-06-26T23:45:40.534Z,57.97
2023-06-26T23:48:08.227Z,58.16
2023-06-26T23:50:35.229Z,58.08
2023-06-26T23:53:02.857Z,58.29
2023-06-26T23:55:30.024Z,59.21
2023-06-26T23:57:57.330Z,58.91
